Adamsdale, Pennsylvania
Current Conditions -  °F | °C
As of 7:54 PM on Monday 22 Dec 2014 (Local Time) from KRDG Reporting Station
Haze Haze  
Wind Chill:   Ceiling: 1200
Heat Index:   Visibility: 5mi
Dew Point:   Wind: 3mph
Humidity: 89%   Direction: 20°NNE
Pressure: 30.18"   Gusts: NA
Location:  40.6412°N, 76.1672°W
Report Text: KRDG 230054Z AUTO 02003KT 5SM BR BKN012 OVC022 03/02 A3018 RMK AO2 RAB16E41 SLP228 P0001 T00330017
Loading
Personal Weather Stations






























Interactive Weather Map New forecast layout! Learn more

10-Day Weather Forecast

Advertisements
Track Severe Weather on mobile